sensor_id;sensor_type;location;lat;lon;timestamp;temperature;humidity
9125;DHT22;4597;48.730;9.114;2023-04-09T00:02:10;7.60;99.90
9125;DHT22;4597;48.730;9.114;2023-04-09T00:04:35;7.60;99.90
9125;DHT22;4597;48.730;9.114;2023-04-09T00:07:01;7.60;99.90
9125;DHT22;4597;48.730;9.114;2023-04-09T00:09:26;7.50;99.90
9125;DHT22;4597;48.730;9.114;2023-04-09T00:11:52;7.50;99.90
9125;DHT22;4597;48.730;9.114;2023-04-09T00:14:17;7.40;99.90
9125;DHT22;4597;48.730;9.114;2023-04-09T00:16:43;7.40;99.90
9125;DHT22;4597;48.730;9.114;2023-04-09T00:19:08;7.30;99.90
9125;DHT22;4597;48.730;9.114;2023-04-09T00:21:34;7.30;99.90
9125;DHT22;4597;48.730;9.114;2023-04-09T00:23:59;7.20;99.90
9125;DHT22;4597;48.730;9.114;2023-04-09T00:26:25;7.20;99.90
9125;DHT22;4597;48.730;9.114;2023-04-09T00:28:51;7.10;99.90
9125;DHT22;4597;48.730;9.114;2023-04-09T00:31:17;7.10;99.90
9125;DHT22;4597;48.730;9.114;2023-04-09T00:33:42;7.10;99.90
9125;DHT22;4597;48.730;9.114;2023-04-09T00:36:08;7.00;99.90
9125;DHT22;4597;48.730;9.114;2023-04-09T00:38:34;6.90;99.90
9125;DHT22;4597;48.730;9.114;2023-04-09T00:40:59;6.90;99.90
9125;DHT22;4597;48.730;9.114;2023-04-09T00:43:25;6.90;99.90
9125;DHT22;4597;48.730;9.114;2023-04-09T00:45:51;6.90;99.90
9125;DHT22;4597;48.730;9.114;2023-04-09T00:48:17;6.80;99.90
9125;DHT22;4597;48.730;9.114;2023-04-09T00:50:42;6.70;99.90
9125;DHT22;4597;48.730;9.114;2023-04-09T00:53:08;6.70;99.90
9125;DHT22;4597;48.730;9.114;2023-04-09T00:55:34;6.60;99.90
9125;DHT22;4597;48.730;9.114;2023-04-09T00:58:00;6.60;99.90
9125;DHT22;4597;48.730;9.114;2023-04-09T01:00:26;6.50;99.90
9125;DHT22;4597;48.730;9.114;2023-04-09T01:02:54;6.50;99.90
9125;DHT22;4597;48.730;9.114;2023-04-09T01:05:20;6.40;99.90
9125;DHT22;4597;48.730;9.114;2023-04-09T01:08:09;6.40;99.90
9125;DHT22;4597;48.730;9.114;2023-04-09T01:11:02;6.40;99.90
9125;DHT22;4597;48.730;9.114;2023-04-09T01:16:02;6.40;99.90
9125;DHT22;4597;48.730;9.114;2023-04-09T01:20:58;6.20;99.90
9125;DHT22;4597;48.730;9.114;2023-04-09T01:23:36;6.10;99.90
9125;DHT22;4597;48.730;9.114;2023-04-09T01:26:17;6.10;99.90
9125;DHT22;4597;48.730;9.114;2023-04-09T01:28:49;6.00;99.90
9125;DHT22;4597;48.730;9.114;2023-04-09T01:31:17;6.00;99.90
9125;DHT22;4597;48.730;9.114;2023-04-09T01:33:44;6.10;99.90
9125;DHT22;4597;48.730;9.114;2023-04-09T01:36:11;6.00;99.90
9125;DHT22;4597;48.730;9.114;2023-04-09T01:38:39;6.00;99.90
9125;DHT22;4597;48.730;9.114;2023-04-09T01:41:07;6.00;99.90
9125;DHT22;4597;48.730;9.114;2023-04-09T01:43:33;6.10;99.90
9125;DHT22;4597;48.730;9.114;2023-04-09T01:46:00;6.10;99.90
9125;DHT22;4597;48.730;9.114;2023-04-09T01:48:28;6.10;99.90
9125;DHT22;4597;48.730;9.114;2023-04-09T01:50:54;6.10;99.90
9125;DHT22;4597;48.730;9.114;2023-04-09T01:53:21;6.10;99.90
9125;DHT22;4597;48.730;9.114;2023-04-09T01:55:46;6.10;99.90
9125;DHT22;4597;48.730;9.114;2023-04-09T01:58:12;6.10;99.90
9125;DHT22;4597;48.730;9.114;2023-04-09T02:00:40;6.10;99.90
9125;DHT22;4597;48.730;9.114;2023-04-09T02:03:10;6.10;99.90
9125;DHT22;4597;48.730;9.114;2023-04-09T02:05:42;6.10;99.90
9125;DHT22;4597;48.730;9.114;2023-04-09T02:08:11;6.10;99.90
9125;DHT22;4597;48.730;9.114;2023-04-09T02:10:39;6.20;99.90
9125;DHT22;4597;48.730;9.114;2023-04-09T02:13:05;6.20;99.90
9125;DHT22;4597;48.730;9.114;2023-04-09T02:15:35;6.20;99.90
9125;DHT22;4597;48.730;9.114;2023-04-09T02:18:02;6.10;99.90
9125;DHT22;4597;48.730;9.114;2023-04-09T02:20:28;6.00;99.90
9125;DHT22;4597;48.730;9.114;2023-04-09T02:22:53;5.90;99.90
9125;DHT22;4597;48.730;9.114;2023-04-09T02:25:21;6.00;99.90
9125;DHT22;4597;48.730;9.114;2023-04-09T02:27:46;5.90;99.90
9125;DHT22;4597;48.730;9.114;2023-04-09T02:30:12;6.00;99.90
9125;DHT22;4597;48.730;9.114;2023-04-09T02:32:37;5.90;99.90
9125;DHT22;4597;48.730;9.114;2023-04-09T02:35:03;5.90;99.90
9125;DHT22;4597;48.730;9.114;2023-04-09T02:37:29;5.90;99.90
9125;DHT22;4597;48.730;9.114;2023-04-09T02:39:54;5.80;99.90
9125;DHT22;4597;48.730;9.114;2023-04-09T02:42:20;5.80;99.90
9125;DHT22;4597;48.730;9.114;2023-04-09T02:44:46;5.80;99.90
9125;DHT22;4597;48.730;9.114;2023-04-09T02:47:11;5.80;99.90
9125;DHT22;4597;48.730;9.114;2023-04-09T02:49:37;5.70;99.90
9125;DHT22;4597;48.730;9.114;2023-04-09T02:52:02;5.80;99.90
9125;DHT22;4597;48.730;9.114;2023-04-09T02:54:27;5.70;99.90
9125;DHT22;4597;48.730;9.114;2023-04-09T02:56:53;5.80;99.90
9125;DHT22;4597;48.730;9.114;2023-04-09T02:59:18;5.70;99.90
9125;DHT22;4597;48.730;9.114;2023-04-09T03:01:44;5.70;99.90
9125;DHT22;4597;48.730;9.114;2023-04-09T03:04:10;5.70;99.90
9125;DHT22;4597;48.730;9.114;2023-04-09T03:06:35;5.70;99.90
9125;DHT22;4597;48.730;9.114;2023-04-09T03:09:00;5.70;99.90
9125;DHT22;4597;48.730;9.114;2023-04-09T03:11:26;5.80;99.90
9125;DHT22;4597;48.730;9.114;2023-04-09T03:13:51;5.80;99.90
9125;DHT22;4597;48.730;9.114;2023-04-09T03:16:17;5.80;99.90
9125;DHT22;4597;48.730;9.114;2023-04-09T03:18:43;5.80;99.90
9125;DHT22;4597;48.730;9.114;2023-04-09T03:21:09;5.60;99.90
9125;DHT22;4597;48.730;9.114;2023-04-09T03:23:34;5.30;99.90
9125;DHT22;4597;48.730;9.114;2023-04-09T03:26:02;5.40;99.90
9125;DHT22;4597;48.730;9.114;2023-04-09T03:28:28;5.40;99.90
9125;DHT22;4597;48.730;9.114;2023-04-09T03:30:53;5.50;99.90
9125;DHT22;4597;48.730;9.114;2023-04-09T03:33:19;5.60;99.90
9125;DHT22;4597;48.730;9.114;2023-04-09T03:35:45;5.60;99.90
9125;DHT22;4597;48.730;9.114;2023-04-09T03:38:10;5.60;99.90
9125;DHT22;4597;48.730;9.114;2023-04-09T03:40:35;5.60;99.90
9125;DHT22;4597;48.730;9.114;2023-04-09T03:43:01;5.60;99.90
9125;DHT22;4597;48.730;9.114;2023-04-09T03:45:28;5.60;99.90
9125;DHT22;4597;48.730;9.114;2023-04-09T03:47:54;5.60;99.90
9125;DHT22;4597;48.730;9.114;2023-04-09T03:50:19;5.60;99.90
9125;DHT22;4597;48.730;9.114;2023-04-09T03:52:45;5.50;99.90
9125;DHT22;4597;48.730;9.114;2023-04-09T03:55:11;5.50;99.90
9125;DHT22;4597;48.730;9.114;2023-04-09T03:57:36;5.50;99.90
9125;DHT22;4597;48.730;9.114;2023-04-09T04:00:02;5.40;99.90
9125;DHT22;4597;48.730;9.114;2023-04-09T04:02:28;5.40;99.90
9125;DHT22;4597;48.730;9.114;2023-04-09T04:05:00;5.40;99.90
9125;DHT22;4597;48.730;9.114;2023-04-09T04:07:26;5.40;99.90
9125;DHT22;4597;48.730;9.114;2023-04-09T04:09:51;5.40;99.90
9125;DHT22;4597;48.730;9.114;2023-04-09T04:12:17;5.40;99.90
9125;DHT22;4597;48.730;9.114;2023-04-09T04:14:43;5.50;99.90
9125;DHT22;4597;48.730;9.114;2023-04-09T04:17:09;5.50;99.90
9125;DHT22;4597;48.730;9.114;2023-04-09T04:19:35;5.50;99.90
9125;DHT22;4597;48.730;9.114;2023-04-09T04:22:00;5.50;99.90
9125;DHT22;4597;48.730;9.114;2023-04-09T04:24:26;5.50;99.90
9125;DHT22;4597;48.730;9.114;2023-04-09T04:26:51;5.40;99.90
9125;DHT22;4597;48.730;9.114;2023-04-09T04:29:17;5.40;99.90
9125;DHT22;4597;48.730;9.114;2023-04-09T04:31:42;5.50;99.90
9125;DHT22;4597;48.730;9.114;2023-04-09T04:34:08;5.50;99.90
9125;DHT22;4597;48.730;9.114;2023-04-09T04:36:33;5.50;99.90
9125;DHT22;4597;48.730;9.114;2023-04-09T04:39:00;5.50;99.90
9125;DHT22;4597;48.730;9.114;2023-04-09T04:41:26;5.50;99.90
9125;DHT22;4597;48.730;9.114;2023-04-09T04:43:51;5.50;99.90
9125;DHT22;4597;48.730;9.114;2023-04-09T04:46:17;5.60;99.90
9125;DHT22;4597;48.730;9.114;2023-04-09T04:48:43;5.60;99.90
9125;DHT22;4597;48.730;9.114;2023-04-09T04:51:08;5.60;99.90
9125;DHT22;4597;48.730;9.114;2023-04-09T04:53:34;5.60;99.90
9125;DHT22;4597;48.730;9.114;2023-04-09T04:55:59;5.60;99.90
9125;DHT22;4597;48.730;9.114;2023-04-09T04:58:25;5.60;99.90
9125;DHT22;4597;48.730;9.114;2023-04-09T05:00:50;5.60;99.90
9125;DHT22;4597;48.730;9.114;2023-04-09T05:03:16;5.60;99.90
9125;DHT22;4597;48.730;9.114;2023-04-09T05:05:41;5.60;99.90
9125;DHT22;4597;48.730;9.114;2023-04-09T05:08:07;5.60;99.90
9125;DHT22;4597;48.730;9.114;2023-04-09T05:10:33;5.60;99.90
9125;DHT22;4597;48.730;9.114;2023-04-09T05:12:58;5.50;99.90
9125;DHT22;4597;48.730;9.114;2023-04-09T05:15:24;5.60;99.90
9125;DHT22;4597;48.730;9.114;2023-04-09T05:17:49;5.50;99.90
9125;DHT22;4597;48.730;9.114;2023-04-09T05:20:15;5.50;99.90
9125;DHT22;4597;48.730;9.114;2023-04-09T05:22:40;5.50;99.90
9125;DHT22;4597;48.730;9.114;2023-04-09T05:25:06;5.50;99.90
9125;DHT22;4597;48.730;9.114;2023-04-09T05:27:32;5.50;99.90
9125;DHT22;4597;48.730;9.114;2023-04-09T05:29:57;5.60;99.90
9125;DHT22;4597;48.730;9.114;2023-04-09T05:32:23;5.60;99.90
9125;DHT22;4597;48.730;9.114;2023-04-09T05:34:49;5.60;99.90
9125;DHT22;4597;48.730;9.114;2023-04-09T05:37:14;5.60;99.90
9125;DHT22;4597;48.730;9.114;2023-04-09T05:39:40;5.60;99.90
9125;DHT22;4597;48.730;9.114;2023-04-09T05:42:05;5.60;99.90
9125;DHT22;4597;48.730;9.114;2023-04-09T05:44:31;5.60;99.90
9125;DHT22;4597;48.730;9.114;2023-04-09T05:46:56;5.60;99.90
9125;DHT22;4597;48.730;9.114;2023-04-09T05:49:22;5.60;99.90
9125;DHT22;4597;48.730;9.114;2023-04-09T05:51:49;5.70;99.90
9125;DHT22;4597;48.730;9.114;2023-04-09T05:54:14;5.70;99.90
9125;DHT22;4597;48.730;9.114;2023-04-09T05:56:41;5.80;99.90
9125;DHT22;4597;48.730;9.114;2023-04-09T05:59:07;5.80;99.90
9125;DHT22;4597;48.730;9.114;2023-04-09T06:01:33;5.80;99.90
9125;DHT22;4597;48.730;9.114;2023-04-09T06:03:59;5.90;99.90
9125;DHT22;4597;48.730;9.114;2023-04-09T06:06:25;5.90;99.90
9125;DHT22;4597;48.730;9.114;2023-04-09T06:08:51;6.00;99.90
9125;DHT22;4597;48.730;9.114;2023-04-09T06:11:16;6.00;99.90
9125;DHT22;4597;48.730;9.114;2023-04-09T06:13:42;6.00;99.90
9125;DHT22;4597;48.730;9.114;2023-04-09T06:16:08;6.00;99.90
9125;DHT22;4597;48.730;9.114;2023-04-09T06:18:34;6.00;99.90
9125;DHT22;4597;48.730;9.114;2023-04-09T06:21:03;6.00;99.90
9125;DHT22;4597;48.730;9.114;2023-04-09T06:23:29;6.10;99.90
9125;DHT22;4597;48.730;9.114;2023-04-09T06:25:55;6.10;99.90
9125;DHT22;4597;48.730;9.114;2023-04-09T06:28:20;6.10;99.90
9125;DHT22;4597;48.730;9.114;2023-04-09T06:30:46;6.10;99.90
9125;DHT22;4597;48.730;9.114;2023-04-09T06:33:11;6.10;99.90
9125;DHT22;4597;48.730;9.114;2023-04-09T06:35:37;6.20;99.90
9125;DHT22;4597;48.730;9.114;2023-04-09T06:38:02;6.20;99.90
9125;DHT22;4597;48.730;9.114;2023-04-09T06:40:28;6.30;99.90
9125;DHT22;4597;48.730;9.114;2023-04-09T06:42:54;6.40;99.90
9125;DHT22;4597;48.730;9.114;2023-04-09T06:45:19;6.50;99.90
9125;DHT22;4597;48.730;9.114;2023-04-09T06:47:45;6.50;99.90
9125;DHT22;4597;48.730;9.114;2023-04-09T06:50:10;6.60;99.90
9125;DHT22;4597;48.730;9.114;2023-04-09T06:52:36;6.60;99.90
9125;DHT22;4597;48.730;9.114;2023-04-09T06:55:01;6.60;99.90
9125;DHT22;4597;48.730;9.114;2023-04-09T06:57:27;6.60;99.90
9125;DHT22;4597;48.730;9.114;2023-04-09T06:59:52;6.80;99.90
9125;DHT22;4597;48.730;9.114;2023-04-09T07:02:18;6.80;99.90
9125;DHT22;4597;48.730;9.114;2023-04-09T07:04:43;6.90;99.90
9125;DHT22;4597;48.730;9.114;2023-04-09T07:07:09;7.00;99.90
9125;DHT22;4597;48.730;9.114;2023-04-09T07:09:34;7.00;99.90
9125;DHT22;4597;48.730;9.114;2023-04-09T07:12:00;7.10;99.90
9125;DHT22;4597;48.730;9.114;2023-04-09T07:14:26;7.10;99.90
9125;DHT22;4597;48.730;9.114;2023-04-09T07:16:51;7.20;99.90
9125;DHT22;4597;48.730;9.114;2023-04-09T07:19:17;7.20;99.90
9125;DHT22;4597;48.730;9.114;2023-04-09T07:21:42;7.20;99.90
9125;DHT22;4597;48.730;9.114;2023-04-09T07:24:08;7.20;99.90
9125;DHT22;4597;48.730;9.114;2023-04-09T07:26:33;7.20;99.90
9125;DHT22;4597;48.730;9.114;2023-04-09T07:28:59;7.30;99.90
9125;DHT22;4597;48.730;9.114;2023-04-09T07:31:24;7.30;99.90
9125;DHT22;4597;48.730;9.114;2023-04-09T07:33:50;7.30;99.90
9125;DHT22;4597;48.730;9.114;2023-04-09T07:36:15;7.40;99.90
9125;DHT22;4597;48.730;9.114;2023-04-09T07:38:41;7.40;99.90
9125;DHT22;4597;48.730;9.114;2023-04-09T07:41:09;7.50;99.90
9125;DHT22;4597;48.730;9.114;2023-04-09T07:43:35;7.50;99.90
9125;DHT22;4597;48.730;9.114;2023-04-09T07:46:00;7.60;99.90
9125;DHT22;4597;48.730;9.114;2023-04-09T07:48:26;7.60;99.90
9125;DHT22;4597;48.730;9.114;2023-04-09T07:50:52;7.60;99.90
9125;DHT22;4597;48.730;9.114;2023-04-09T07:53:18;7.60;99.90
9125;DHT22;4597;48.730;9.114;2023-04-09T07:55:43;7.60;99.90
9125;DHT22;4597;48.730;9.114;2023-04-09T07:58:09;7.70;99.90
9125;DHT22;4597;48.730;9.114;2023-04-09T08:00:34;7.70;99.90
9125;DHT22;4597;48.730;9.114;2023-04-09T08:03:00;7.80;99.90
9125;DHT22;4597;48.730;9.114;2023-04-09T08:05:28;7.80;99.90
9125;DHT22;4597;48.730;9.114;2023-04-09T08:07:53;7.80;99.90
9125;DHT22;4597;48.730;9.114;2023-04-09T08:10:19;7.90;99.90
9125;DHT22;4597;48.730;9.114;2023-04-09T08:12:47;7.90;99.90
9125;DHT22;4597;48.730;9.114;2023-04-09T08:15:12;7.90;99.90
9125;DHT22;4597;48.730;9.114;2023-04-09T08:17:38;8.00;99.90
9125;DHT22;4597;48.730;9.114;2023-04-09T08:20:04;8.10;99.90
9125;DHT22;4597;48.730;9.114;2023-04-09T08:22:30;8.20;99.90
9125;DHT22;4597;48.730;9.114;2023-04-09T08:24:56;8.30;99.90
9125;DHT22;4597;48.730;9.114;2023-04-09T08:27:23;8.50;99.90
9125;DHT22;4597;48.730;9.114;2023-04-09T08:29:48;8.60;99.90
9125;DHT22;4597;48.730;9.114;2023-04-09T08:32:14;8.70;99.90
9125;DHT22;4597;48.730;9.114;2023-04-09T08:34:40;8.80;99.90
9125;DHT22;4597;48.730;9.114;2023-04-09T08:37:05;9.10;99.90
9125;DHT22;4597;48.730;9.114;2023-04-09T08:39:31;9.20;99.90
9125;DHT22;4597;48.730;9.114;2023-04-09T08:41:58;9.30;99.90
9125;DHT22;4597;48.730;9.114;2023-04-09T08:44:27;9.20;99.90
9125;DHT22;4597;48.730;9.114;2023-04-09T08:46:53;9.20;99.90
9125;DHT22;4597;48.730;9.114;2023-04-09T08:49:19;9.30;99.90
9125;DHT22;4597;48.730;9.114;2023-04-09T08:51:46;9.30;99.90
9125;DHT22;4597;48.730;9.114;2023-04-09T08:54:14;9.30;99.90
9125;DHT22;4597;48.730;9.114;2023-04-09T08:56:41;9.30;99.90
9125;DHT22;4597;48.730;9.114;2023-04-09T08:59:07;9.40;99.90
9125;DHT22;4597;48.730;9.114;2023-04-09T09:01:33;9.40;99.90
9125;DHT22;4597;48.730;9.114;2023-04-09T09:04:04;9.40;99.90
9125;DHT22;4597;48.730;9.114;2023-04-09T09:06:40;9.50;99.90
9125;DHT22;4597;48.730;9.114;2023-04-09T09:09:09;9.60;99.90
9125;DHT22;4597;48.730;9.114;2023-04-09T09:11:43;9.70;99.90
9125;DHT22;4597;48.730;9.114;2023-04-09T09:14:14;9.80;99.90
9125;DHT22;4597;48.730;9.114;2023-04-09T09:16:42;9.90;99.90
9125;DHT22;4597;48.730;9.114;2023-04-09T09:19:09;10.10;99.90
9125;DHT22;4597;48.730;9.114;2023-04-09T09:21:34;10.10;99.90
9125;DHT22;4597;48.730;9.114;2023-04-09T09:24:01;10.10;99.90
9125;DHT22;4597;48.730;9.114;2023-04-09T09:26:40;10.20;99.90
9125;DHT22;4597;48.730;9.114;2023-04-09T09:29:06;10.30;99.90
9125;DHT22;4597;48.730;9.114;2023-04-09T09:31:45;10.30;99.90
9125;DHT22;4597;48.730;9.114;2023-04-09T09:34:11;10.40;99.90
9125;DHT22;4597;48.730;9.114;2023-04-09T09:36:37;10.50;99.90
9125;DHT22;4597;48.730;9.114;2023-04-09T09:39:02;10.60;99.90
9125;DHT22;4597;48.730;9.114;2023-04-09T09:41:28;10.60;99.90
9125;DHT22;4597;48.730;9.114;2023-04-09T09:43:54;10.70;99.90
9125;DHT22;4597;48.730;9.114;2023-04-09T09:46:20;10.80;99.90
9125;DHT22;4597;48.730;9.114;2023-04-09T09:48:46;10.90;99.90
9125;DHT22;4597;48.730;9.114;2023-04-09T09:51:12;11.10;99.90
9125;DHT22;4597;48.730;9.114;2023-04-09T09:53:40;11.30;99.90
9125;DHT22;4597;48.730;9.114;2023-04-09T09:56:14;11.40;99.90
9125;DHT22;4597;48.730;9.114;2023-04-09T09:58:47;11.60;99.90
9125;DHT22;4597;48.730;9.114;2023-04-09T10:01:16;11.80;95.70
9125;DHT22;4597;48.730;9.114;2023-04-09T10:03:45;12.00;92.60
9125;DHT22;4597;48.730;9.114;2023-04-09T10:06:11;12.20;90.50
9125;DHT22;4597;48.730;9.114;2023-04-09T10:08:39;12.30;90.30
9125;DHT22;4597;48.730;9.114;2023-04-09T10:11:06;12.50;89.70
9125;DHT22;4597;48.730;9.114;2023-04-09T10:13:38;12.60;81.40
9125;DHT22;4597;48.730;9.114;2023-04-09T10:16:04;12.60;78.20
9125;DHT22;4597;48.730;9.114;2023-04-09T10:18:31;12.70;75.10
9125;DHT22;4597;48.730;9.114;2023-04-09T10:23:56;12.80;72.80
9125;DHT22;4597;48.730;9.114;2023-04-09T10:26:24;12.90;74.00
9125;DHT22;4597;48.730;9.114;2023-04-09T10:29:09;12.90;74.50
9125;DHT22;4597;48.730;9.114;2023-04-09T10:32:04;12.90;77.70
9125;DHT22;4597;48.730;9.114;2023-04-09T10:34:34;13.00;78.60
9125;DHT22;4597;48.730;9.114;2023-04-09T10:37:00;13.10;75.70
9125;DHT22;4597;48.730;9.114;2023-04-09T10:39:27;13.20;71.80
9125;DHT22;4597;48.730;9.114;2023-04-09T10:41:55;13.30;70.10
9125;DHT22;4597;48.730;9.114;2023-04-09T10:44:28;13.40;67.30
9125;DHT22;4597;48.730;9.114;2023-04-09T10:46:56;13.40;65.40
9125;DHT22;4597;48.730;9.114;2023-04-09T10:49:24;13.30;66.30
9125;DHT22;4597;48.730;9.114;2023-04-09T10:52:06;13.30;65.60
9125;DHT22;4597;48.730;9.114;2023-04-09T10:59:38;13.60;66.60
9125;DHT22;4597;48.730;9.114;2023-04-09T11:02:08;13.60;66.20
9125;DHT22;4597;48.730;9.114;2023-04-09T11:04:47;13.70;64.60
9125;DHT22;4597;48.730;9.114;2023-04-09T11:07:16;13.70;65.70
9125;DHT22;4597;48.730;9.114;2023-04-09T11:09:43;13.90;61.90
9125;DHT22;4597;48.730;9.114;2023-04-09T11:12:10;13.80;61.10
9125;DHT22;4597;48.730;9.114;2023-04-09T11:14:36;14.00;61.20
9125;DHT22;4597;48.730;9.114;2023-04-09T11:17:02;14.10;59.70
9125;DHT22;4597;48.730;9.114;2023-04-09T11:19:28;14.20;58.00
9125;DHT22;4597;48.730;9.114;2023-04-09T11:21:53;14.30;56.60
9125;DHT22;4597;48.730;9.114;2023-04-09T11:24:20;14.40;53.50
9125;DHT22;4597;48.730;9.114;2023-04-09T11:26:47;14.30;53.00
9125;DHT22;4597;48.730;9.114;2023-04-09T11:29:13;14.30;52.80
9125;DHT22;4597;48.730;9.114;2023-04-09T11:31:43;14.20;53.00
9125;DHT22;4597;48.730;9.114;2023-04-09T11:34:09;14.30;51.00
9125;DHT22;4597;48.730;9.114;2023-04-09T11:36:36;14.30;49.00
9125;DHT22;4597;48.730;9.114;2023-04-09T11:39:03;14.30;48.90
9125;DHT22;4597;48.730;9.114;2023-04-09T11:41:34;14.30;50.60
9125;DHT22;4597;48.730;9.114;2023-04-09T11:44:03;14.40;51.30
9125;DHT22;4597;48.730;9.114;2023-04-09T11:46:31;14.60;51.10
9125;DHT22;4597;48.730;9.114;2023-04-09T11:48:57;14.70;50.50
9125;DHT22;4597;48.730;9.114;2023-04-09T11:51:22;14.80;48.80
9125;DHT22;4597;48.730;9.114;2023-04-09T11:53:48;14.80;47.70
9125;DHT22;4597;48.730;9.114;2023-04-09T11:56:15;14.60;48.30
9125;DHT22;4597;48.730;9.114;2023-04-09T11:58:44;14.50;48.30
9125;DHT22;4597;48.730;9.114;2023-04-09T12:01:11;14.30;50.70
9125;DHT22;4597;48.730;9.114;2023-04-09T12:03:37;14.10;51.50
9125;DHT22;4597;48.730;9.114;2023-04-09T12:06:04;14.00;51.60
9125;DHT22;4597;48.730;9.114;2023-04-09T12:08:33;14.10;54.30
9125;DHT22;4597;48.730;9.114;2023-04-09T12:11:15;14.10;52.60
9125;DHT22;4597;48.730;9.114;2023-04-09T12:13:41;14.10;52.00
9125;DHT22;4597;48.730;9.114;2023-04-09T12:16:09;14.10;51.40
9125;DHT22;4597;48.730;9.114;2023-04-09T12:18:35;14.30;52.80
9125;DHT22;4597;48.730;9.114;2023-04-09T12:21:02;14.40;51.60
9125;DHT22;4597;48.730;9.114;2023-04-09T12:23:27;14.40;51.50
9125;DHT22;4597;48.730;9.114;2023-04-09T12:25:55;14.40;50.80
9125;DHT22;4597;48.730;9.114;2023-04-09T12:28:23;14.50;52.00
9125;DHT22;4597;48.730;9.114;2023-04-09T12:30:49;14.50;53.00
9125;DHT22;4597;48.730;9.114;2023-04-09T12:33:15;14.70;50.30
9125;DHT22;4597;48.730;9.114;2023-04-09T12:35:41;14.90;48.90
9125;DHT22;4597;48.730;9.114;2023-04-09T12:38:06;15.00;47.00
9125;DHT22;4597;48.730;9.114;2023-04-09T12:40:32;14.90;46.20
9125;DHT22;4597;48.730;9.114;2023-04-09T12:42:58;14.80;45.80
9125;DHT22;4597;48.730;9.114;2023-04-09T12:45:23;14.80;47.20
9125;DHT22;4597;48.730;9.114;2023-04-09T12:47:49;14.70;47.30
9125;DHT22;4597;48.730;9.114;2023-04-09T12:50:15;14.80;47.00
9125;DHT22;4597;48.730;9.114;2023-04-09T12:52:42;14.80;45.50
9125;DHT22;4597;48.730;9.114;2023-04-09T12:55:08;14.80;46.30
9125;DHT22;4597;48.730;9.114;2023-04-09T12:57:36;14.90;47.40
9125;DHT22;4597;48.730;9.114;2023-04-09T13:00:01;14.90;47.60
9125;DHT22;4597;48.730;9.114;2023-04-09T13:02:29;15.10;46.40
9125;DHT22;4597;48.730;9.114;2023-04-09T13:04:54;15.20;45.10
9125;DHT22;4597;48.730;9.114;2023-04-09T13:07:20;15.20;46.20
9125;DHT22;4597;48.730;9.114;2023-04-09T13:09:46;15.30;44.30
9125;DHT22;4597;48.730;9.114;2023-04-09T13:12:13;15.40;45.00
9125;DHT22;4597;48.730;9.114;2023-04-09T13:14:40;15.40;45.00
9125;DHT22;4597;48.730;9.114;2023-04-09T13:17:06;15.60;44.40
9125;DHT22;4597;48.730;9.114;2023-04-09T13:19:31;15.80;46.30
9125;DHT22;4597;48.730;9.114;2023-04-09T13:21:57;15.90;45.40
9125;DHT22;4597;48.730;9.114;2023-04-09T13:24:23;16.10;43.10
9125;DHT22;4597;48.730;9.114;2023-04-09T13:26:48;16.20;41.80
9125;DHT22;4597;48.730;9.114;2023-04-09T13:29:14;16.20;42.00
9125;DHT22;4597;48.730;9.114;2023-04-09T13:31:39;16.20;43.30
9125;DHT22;4597;48.730;9.114;2023-04-09T13:34:05;16.30;45.30
9125;DHT22;4597;48.730;9.114;2023-04-09T13:36:31;16.30;43.70
9125;DHT22;4597;48.730;9.114;2023-04-09T13:38:57;16.20;44.00
9125;DHT22;4597;48.730;9.114;2023-04-09T13:41:29;16.30;44.00
9125;DHT22;4597;48.730;9.114;2023-04-09T13:43:55;16.30;43.40
9125;DHT22;4597;48.730;9.114;2023-04-09T13:46:21;16.40;44.40
9125;DHT22;4597;48.730;9.114;2023-04-09T13:48:46;16.50;45.30
9125;DHT22;4597;48.730;9.114;2023-04-09T13:51:12;16.70;43.50
9125;DHT22;4597;48.730;9.114;2023-04-09T13:53:37;16.80;42.80
9125;DHT22;4597;48.730;9.114;2023-04-09T13:56:03;16.70;41.00
9125;DHT22;4597;48.730;9.114;2023-04-09T13:58:28;17.00;40.70
9125;DHT22;4597;48.730;9.114;2023-04-09T14:00:54;17.00;40.30
9125;DHT22;4597;48.730;9.114;2023-04-09T14:03:19;17.00;41.90
9125;DHT22;4597;48.730;9.114;2023-04-09T14:05:45;17.20;41.50
9125;DHT22;4597;48.730;9.114;2023-04-09T14:08:11;17.50;41.70
9125;DHT22;4597;48.730;9.114;2023-04-09T14:10:36;17.60;41.20
9125;DHT22;4597;48.730;9.114;2023-04-09T14:13:02;17.70;40.40
9125;DHT22;4597;48.730;9.114;2023-04-09T14:15:31;18.00;39.90
9125;DHT22;4597;48.730;9.114;2023-04-09T14:17:56;18.10;39.80
9125;DHT22;4597;48.730;9.114;2023-04-09T14:20:22;18.20;39.20
9125;DHT22;4597;48.730;9.114;2023-04-09T14:22:49;18.00;37.80
9125;DHT22;4597;48.730;9.114;2023-04-09T14:25:15;17.90;37.10
9125;DHT22;4597;48.730;9.114;2023-04-09T14:27:40;17.90;37.00
9125;DHT22;4597;48.730;9.114;2023-04-09T14:30:07;17.90;37.60
9125;DHT22;4597;48.730;9.114;2023-04-09T14:32:33;18.00;38.50
9125;DHT22;4597;48.730;9.114;2023-04-09T14:34:58;18.00;37.20
9125;DHT22;4597;48.730;9.114;2023-04-09T14:37:24;18.00;37.10
9125;DHT22;4597;48.730;9.114;2023-04-09T14:39:50;18.00;36.10
9125;DHT22;4597;48.730;9.114;2023-04-09T14:42:15;18.30;36.40
9125;DHT22;4597;48.730;9.114;2023-04-09T14:44:41;18.40;36.80
9125;DHT22;4597;48.730;9.114;2023-04-09T14:47:06;18.70;34.90
9125;DHT22;4597;48.730;9.114;2023-04-09T14:49:32;18.80;35.30
9125;DHT22;4597;48.730;9.114;2023-04-09T14:51:58;18.70;34.80
9125;DHT22;4597;48.730;9.114;2023-04-09T14:54:23;18.60;34.90
9125;DHT22;4597;48.730;9.114;2023-04-09T14:56:49;18.50;33.80
9125;DHT22;4597;48.730;9.114;2023-04-09T14:59:14;18.70;35.40
9125;DHT22;4597;48.730;9.114;2023-04-09T15:01:40;19.60;33.60
9125;DHT22;4597;48.730;9.114;2023-04-09T15:04:05;20.40;31.30
9125;DHT22;4597;48.730;9.114;2023-04-09T15:06:31;20.50;31.70
9125;DHT22;4597;48.730;9.114;2023-04-09T15:08:57;21.10;30.80
9125;DHT22;4597;48.730;9.114;2023-04-09T15:11:22;20.90;29.60
9125;DHT22;4597;48.730;9.114;2023-04-09T15:13:48;20.60;29.70
9125;DHT22;4597;48.730;9.114;2023-04-09T15:16:25;20.50;31.30
9125;DHT22;4597;48.730;9.114;2023-04-09T15:18:51;20.30;30.00
9125;DHT22;4597;48.730;9.114;2023-04-09T15:21:17;20.00;31.20
9125;DHT22;4597;48.730;9.114;2023-04-09T15:23:43;19.70;31.40
9125;DHT22;4597;48.730;9.114;2023-04-09T15:26:08;19.50;32.00
9125;DHT22;4597;48.730;9.114;2023-04-09T15:28:34;19.10;32.10
9125;DHT22;4597;48.730;9.114;2023-04-09T15:30:59;19.10;32.40
9125;DHT22;4597;48.730;9.114;2023-04-09T15:33:25;18.80;32.80
9125;DHT22;4597;48.730;9.114;2023-04-09T15:35:52;18.90;33.10
9125;DHT22;4597;48.730;9.114;2023-04-09T15:38:18;18.90;32.10
9125;DHT22;4597;48.730;9.114;2023-04-09T15:40:46;18.90;32.60
9125;DHT22;4597;48.730;9.114;2023-04-09T15:43:11;18.80;32.00
9125;DHT22;4597;48.730;9.114;2023-04-09T15:45:37;18.80;31.80
9125;DHT22;4597;48.730;9.114;2023-04-09T15:48:02;18.70;31.60
9125;DHT22;4597;48.730;9.114;2023-04-09T15:50:28;18.40;32.40
9125;DHT22;4597;48.730;9.114;2023-04-09T15:52:53;18.10;33.60
9125;DHT22;4597;48.730;9.114;2023-04-09T15:55:20;17.90;33.90
9125;DHT22;4597;48.730;9.114;2023-04-09T15:57:47;18.00;34.90
9125;DHT22;4597;48.730;9.114;2023-04-09T16:00:13;18.50;34.00
9125;DHT22;4597;48.730;9.114;2023-04-09T16:02:39;19.00;32.80
9125;DHT22;4597;48.730;9.114;2023-04-09T16:05:05;19.70;30.10
9125;DHT22;4597;48.730;9.114;2023-04-09T16:07:31;20.20;28.50
9125;DHT22;4597;48.730;9.114;2023-04-09T16:09:57;20.60;27.50
9125;DHT22;4597;48.730;9.114;2023-04-09T16:12:22;20.80;28.50
9125;DHT22;4597;48.730;9.114;2023-04-09T16:14:49;21.00;28.80
9125;DHT22;4597;48.730;9.114;2023-04-09T16:17:15;21.20;28.50
9125;DHT22;4597;48.730;9.114;2023-04-09T16:19:41;21.60;28.00
9125;DHT22;4597;48.730;9.114;2023-04-09T16:22:07;21.70;27.20